Canberra International Airport

YSCB · 澳大利亚首都领地, 澳大利亚

罗盘
风向 的 Canberra International Airport 17/35
风: 0 kt, 0 beaufort


改变
0 ft 1.000 2.000 3.000 4.000 5.000
未检测到零云
METAR YSCB 121700Z AUTO 00000KT 9999 // NCD M00/M01 Q1020 RF00.0/000.0

METAR Canberra International Airport - YSCB/CBR

Canberra International Airport是,澳大利亚中的中型机场。 该机场位于纬度-35,30548和经度149,19322。 该机场有2条跑道: 17/35 和 12/30. 本场的ICAO机场代码为YSCB。 该机场的IATA代码为CBR。 机场在Melbourne FIR中。

该航空气象观测是针对Canberra International Airport在2024年6月13日 03:00, 当地时间进行的。

机场观察

可变方向的风很小或没有风。

可见度为10 km 或者更多。

有未检测到零云。 没有观察到天花板。

温度和风寒是0 °C。 露点为-1 °C,相对湿度为93%。 海平面上的气压为1020 hPa (QNH)。

白天

今天,太阳从07:09升起,在16:57降落。 这适用于Canberra International Airport,世界夏令时可能有所不同。 当地时间与世界标准时间之间的时差为+10 小时。 夏令时目前正在进行中。

公司介绍

在这个机场,你可以找到跳伞中心。 本场上唯一已知的公司是Skydive Canberra。

体会

到Vliegles.nl去找飞行课程,跳伞和其他飞行体验。 浏览页面,了解Canberra International Airport附近所有可用的活动。 你也可以使用搜索功能来寻找你所在地附近的特定飞行课程、跳伞或其他飞行体验。

跑道

Id 标题 侧风 逆风 侧风 %
17/35 180°-360°
12/30 130°-310°

逆风成分最大的方向会被突出显示,并用于横风计算。 这并不一定意味着这个方向在使用。

乌云

- NCD 未检测到零云

温度 & 天气

温度 0 °C
露点 -1 °C
相对湿度 93%
Kp-index 1 (0-9)

白天

日出
07:09 (3:33)
中午
12:03
日落
16:57

小工具

你想在你的网站上有一个关于Canberra International Airport的当前航空天气(METAR)的小部件吗?

显示HTML代码
报告变更